sensor_id;sensor_type;location;lat;lon;timestamp;P1;durP1;ratioP1;P2;durP2;ratioP2
46613;SDS011;32338;50.430;6.806;2023-03-23T00:01:32;2.63;;;1.38;;
46613;SDS011;32338;50.430;6.806;2023-03-23T00:04:03;2.15;;;0.95;;
46613;SDS011;32338;50.430;6.806;2023-03-23T00:06:30;2.08;;;1.20;;
46613;SDS011;32338;50.430;6.806;2023-03-23T00:09:00;1.42;;;1.05;;
46613;SDS011;32338;50.430;6.806;2023-03-23T00:11:29;3.75;;;1.33;;
46613;SDS011;32338;50.430;6.806;2023-03-23T00:13:59;2.38;;;1.20;;
46613;SDS011;32338;50.430;6.806;2023-03-23T00:16:27;2.05;;;1.20;;
46613;SDS011;32338;50.430;6.806;2023-03-23T00:18:57;1.10;;;1.00;;
46613;SDS011;32338;50.430;6.806;2023-03-23T00:21:27;1.20;;;1.00;;
46613;SDS011;32338;50.430;6.806;2023-03-23T00:24:00;3.00;;;1.30;;
46613;SDS011;32338;50.430;6.806;2023-03-23T00:26:27;3.22;;;1.10;;
46613;SDS011;32338;50.430;6.806;2023-03-23T00:28:54;1.95;;;1.08;;
46613;SDS011;32338;50.430;6.806;2023-03-23T00:31:21;1.13;;;1.02;;
46613;SDS011;32338;50.430;6.806;2023-03-23T00:33:48;1.25;;;1.00;;
46613;SDS011;32338;50.430;6.806;2023-03-23T00:36:14;2.10;;;1.30;;
46613;SDS011;32338;50.430;6.806;2023-03-23T00:38:44;2.03;;;1.10;;
46613;SDS011;32338;50.430;6.806;2023-03-23T00:41:12;1.70;;;1.20;;
46613;SDS011;32338;50.430;6.806;2023-03-23T00:43:40;1.20;;;1.08;;
46613;SDS011;32338;50.430;6.806;2023-03-23T00:46:07;2.65;;;1.00;;
46613;SDS011;32338;50.430;6.806;2023-03-23T00:48:34;1.42;;;1.10;;
46613;SDS011;32338;50.430;6.806;2023-03-23T00:51:05;1.45;;;1.05;;
46613;SDS011;32338;50.430;6.806;2023-03-23T00:53:35;2.08;;;1.00;;
46613;SDS011;32338;50.430;6.806;2023-03-23T00:56:03;1.35;;;1.00;;
46613;SDS011;32338;50.430;6.806;2023-03-23T00:58:30;2.05;;;1.00;;
46613;SDS011;32338;50.430;6.806;2023-03-23T01:00:57;3.33;;;1.13;;
46613;SDS011;32338;50.430;6.806;2023-03-23T01:03:24;2.92;;;1.10;;
46613;SDS011;32338;50.430;6.806;2023-03-23T01:05:51;3.00;;;1.20;;
46613;SDS011;32338;50.430;6.806;2023-03-23T01:08:18;5.25;;;0.93;;
46613;SDS011;32338;50.430;6.806;2023-03-23T01:10:46;2.65;;;1.13;;
46613;SDS011;32338;50.430;6.806;2023-03-23T01:13:15;1.33;;;1.10;;
46613;SDS011;32338;50.430;6.806;2023-03-23T01:15:42;1.08;;;0.98;;
46613;SDS011;32338;50.430;6.806;2023-03-23T01:18:09;3.70;;;1.08;;
46613;SDS011;32338;50.430;6.806;2023-03-23T01:20:36;1.30;;;0.80;;
46613;SDS011;32338;50.430;6.806;2023-03-23T01:23:03;5.28;;;1.17;;
46613;SDS011;32338;50.430;6.806;2023-03-23T01:25:31;3.63;;;1.13;;
46613;SDS011;32338;50.430;6.806;2023-03-23T01:28:00;1.75;;;1.30;;
46613;SDS011;32338;50.430;6.806;2023-03-23T01:30:28;2.88;;;1.08;;
46613;SDS011;32338;50.430;6.806;2023-03-23T01:32:55;2.03;;;1.15;;
46613;SDS011;32338;50.430;6.806;2023-03-23T01:35:22;1.42;;;1.00;;
46613;SDS011;32338;50.430;6.806;2023-03-23T01:37:48;1.63;;;1.10;;
46613;SDS011;32338;50.430;6.806;2023-03-23T01:40:15;2.45;;;1.27;;
46613;SDS011;32338;50.430;6.806;2023-03-23T01:42:42;2.58;;;1.30;;
46613;SDS011;32338;50.430;6.806;2023-03-23T01:45:21;3.17;;;1.20;;
46613;SDS011;32338;50.430;6.806;2023-03-23T01:47:54;1.35;;;1.15;;
46613;SDS011;32338;50.430;6.806;2023-03-23T01:50:24;1.80;;;1.23;;
46613;SDS011;32338;50.430;6.806;2023-03-23T01:52:52;3.78;;;1.30;;
46613;SDS011;32338;50.430;6.806;2023-03-23T01:55:21;2.03;;;1.20;;
46613;SDS011;32338;50.430;6.806;2023-03-23T01:57:49;4.15;;;1.42;;
46613;SDS011;32338;50.430;6.806;2023-03-23T02:00:17;2.42;;;1.15;;
46613;SDS011;32338;50.430;6.806;2023-03-23T02:02:45;2.67;;;1.42;;
46613;SDS011;32338;50.430;6.806;2023-03-23T02:05:17;3.30;;;1.55;;
46613;SDS011;32338;50.430;6.806;2023-03-23T02:07:47;4.05;;;1.50;;
46613;SDS011;32338;50.430;6.806;2023-03-23T02:10:15;3.97;;;1.38;;
46613;SDS011;32338;50.430;6.806;2023-03-23T02:12:41;3.55;;;1.60;;
46613;SDS011;32338;50.430;6.806;2023-03-23T02:15:08;2.97;;;1.65;;
46613;SDS011;32338;50.430;6.806;2023-03-23T02:17:37;2.58;;;1.83;;
46613;SDS011;32338;50.430;6.806;2023-03-23T02:20:13;1.98;;;1.73;;
46613;SDS011;32338;50.430;6.806;2023-03-23T02:22:56;2.13;;;1.90;;
46613;SDS011;32338;50.430;6.806;2023-03-23T02:31:47;2.42;;;2.10;;
46613;SDS011;32338;50.430;6.806;2023-03-23T02:34:28;2.50;;;2.00;;
46613;SDS011;32338;50.430;6.806;2023-03-23T02:36:58;4.60;;;2.05;;
46613;SDS011;32338;50.430;6.806;2023-03-23T02:39:29;4.72;;;2.00;;
46613;SDS011;32338;50.430;6.806;2023-03-23T02:42:01;2.35;;;1.90;;
46613;SDS011;32338;50.430;6.806;2023-03-23T02:44:31;4.15;;;2.25;;
46613;SDS011;32338;50.430;6.806;2023-03-23T02:47:00;3.17;;;2.30;;
46613;SDS011;32338;50.430;6.806;2023-03-23T02:49:32;5.43;;;2.20;;
46613;SDS011;32338;50.430;6.806;2023-03-23T02:52:05;5.05;;;2.33;;
46613;SDS011;32338;50.430;6.806;2023-03-23T02:54:34;2.60;;;2.38;;
46613;SDS011;32338;50.430;6.806;2023-03-23T02:57:02;4.28;;;2.28;;
46613;SDS011;32338;50.430;6.806;2023-03-23T02:59:29;3.53;;;2.15;;
46613;SDS011;32338;50.430;6.806;2023-03-23T03:01:58;2.63;;;2.17;;
46613;SDS011;32338;50.430;6.806;2023-03-23T03:04:30;2.72;;;2.10;;
46613;SDS011;32338;50.430;6.806;2023-03-23T03:07:02;3.15;;;2.45;;
46613;SDS011;32338;50.430;6.806;2023-03-23T03:09:42;5.15;;;2.75;;
46613;SDS011;32338;50.430;6.806;2023-03-23T03:12:14;2.47;;;2.22;;
46613;SDS011;32338;50.430;6.806;2023-03-23T03:14:49;3.35;;;2.38;;
46613;SDS011;32338;50.430;6.806;2023-03-23T03:17:23;2.20;;;1.90;;
46613;SDS011;32338;50.430;6.806;2023-03-23T03:19:54;2.38;;;2.10;;
46613;SDS011;32338;50.430;6.806;2023-03-23T03:22:24;4.43;;;2.20;;
46613;SDS011;32338;50.430;6.806;2023-03-23T03:24:55;5.78;;;2.17;;
46613;SDS011;32338;50.430;6.806;2023-03-23T03:27:23;9.10;;;2.10;;
46613;SDS011;32338;50.430;6.806;2023-03-23T03:29:53;3.20;;;2.00;;
46613;SDS011;32338;50.430;6.806;2023-03-23T03:32:24;5.28;;;2.20;;
46613;SDS011;32338;50.430;6.806;2023-03-23T03:34:59;2.83;;;1.92;;
46613;SDS011;32338;50.430;6.806;2023-03-23T03:37:26;4.45;;;2.15;;
46613;SDS011;32338;50.430;6.806;2023-03-23T03:39:53;2.92;;;2.17;;
46613;SDS011;32338;50.430;6.806;2023-03-23T03:42:20;3.92;;;2.08;;
46613;SDS011;32338;50.430;6.806;2023-03-23T03:44:47;2.55;;;2.25;;
46613;SDS011;32338;50.430;6.806;2023-03-23T03:47:13;2.65;;;2.45;;
46613;SDS011;32338;50.430;6.806;2023-03-23T03:49:40;4.13;;;2.33;;
46613;SDS011;32338;50.430;6.806;2023-03-23T03:52:08;4.13;;;2.40;;
46613;SDS011;32338;50.430;6.806;2023-03-23T03:54:35;4.63;;;2.72;;
46613;SDS011;32338;50.430;6.806;2023-03-23T03:57:02;4.85;;;2.75;;
46613;SDS011;32338;50.430;6.806;2023-03-23T03:59:28;3.25;;;2.95;;
46613;SDS011;32338;50.430;6.806;2023-03-23T04:01:55;3.33;;;2.38;;
46613;SDS011;32338;50.430;6.806;2023-03-23T04:04:22;3.83;;;2.83;;
46613;SDS011;32338;50.430;6.806;2023-03-23T04:06:49;4.25;;;2.55;;
46613;SDS011;32338;50.430;6.806;2023-03-23T04:09:17;2.75;;;2.30;;
46613;SDS011;32338;50.430;6.806;2023-03-23T04:11:44;3.20;;;2.67;;
46613;SDS011;32338;50.430;6.806;2023-03-23T04:14:11;2.55;;;2.10;;
46613;SDS011;32338;50.430;6.806;2023-03-23T04:16:37;2.53;;;2.10;;
46613;SDS011;32338;50.430;6.806;2023-03-23T04:19:05;3.15;;;2.30;;
46613;SDS011;32338;50.430;6.806;2023-03-23T04:21:32;2.30;;;2.10;;
46613;SDS011;32338;50.430;6.806;2023-03-23T04:23:59;2.83;;;1.90;;
46613;SDS011;32338;50.430;6.806;2023-03-23T04:26:27;1.80;;;1.70;;
46613;SDS011;32338;50.430;6.806;2023-03-23T04:28:54;2.92;;;2.10;;
46613;SDS011;32338;50.430;6.806;2023-03-23T04:31:22;1.98;;;1.77;;
46613;SDS011;32338;50.430;6.806;2023-03-23T04:33:50;2.53;;;1.80;;
46613;SDS011;32338;50.430;6.806;2023-03-23T04:36:18;1.80;;;1.70;;
46613;SDS011;32338;50.430;6.806;2023-03-23T04:38:47;2.50;;;1.85;;
46613;SDS011;32338;50.430;6.806;2023-03-23T04:41:15;5.30;;;1.70;;
46613;SDS011;32338;50.430;6.806;2023-03-23T04:43:43;2.92;;;1.92;;
46613;SDS011;32338;50.430;6.806;2023-03-23T04:46:10;1.70;;;1.60;;
46613;SDS011;32338;50.430;6.806;2023-03-23T04:48:37;2.20;;;1.60;;
46613;SDS011;32338;50.430;6.806;2023-03-23T04:51:04;2.40;;;1.90;;
46613;SDS011;32338;50.430;6.806;2023-03-23T04:53:31;2.67;;;1.67;;
46613;SDS011;32338;50.430;6.806;2023-03-23T04:55:59;2.13;;;2.00;;
46613;SDS011;32338;50.430;6.806;2023-03-23T04:58:27;2.25;;;1.92;;
46613;SDS011;32338;50.430;6.806;2023-03-23T05:00:56;1.80;;;1.70;;
46613;SDS011;32338;50.430;6.806;2023-03-23T05:03:22;1.92;;;1.83;;
46613;SDS011;32338;50.430;6.806;2023-03-23T05:05:50;3.05;;;1.60;;
46613;SDS011;32338;50.430;6.806;2023-03-23T05:08:17;2.33;;;1.67;;
46613;SDS011;32338;50.430;6.806;2023-03-23T05:10:49;1.70;;;1.60;;
46613;SDS011;32338;50.430;6.806;2023-03-23T05:13:17;4.43;;;1.77;;
46613;SDS011;32338;50.430;6.806;2023-03-23T05:15:44;3.55;;;1.90;;
46613;SDS011;32338;50.430;6.806;2023-03-23T05:18:12;1.58;;;1.38;;
46613;SDS011;32338;50.430;6.806;2023-03-23T05:20:39;2.33;;;1.50;;
46613;SDS011;32338;50.430;6.806;2023-03-23T05:23:06;1.90;;;1.55;;
46613;SDS011;32338;50.430;6.806;2023-03-23T05:25:34;2.22;;;1.35;;
46613;SDS011;32338;50.430;6.806;2023-03-23T05:28:05;2.85;;;1.33;;
46613;SDS011;32338;50.430;6.806;2023-03-23T05:30:31;2.63;;;1.50;;
46613;SDS011;32338;50.430;6.806;2023-03-23T05:32:58;1.38;;;1.20;;
46613;SDS011;32338;50.430;6.806;2023-03-23T05:35:26;1.75;;;1.50;;
46613;SDS011;32338;50.430;6.806;2023-03-23T05:37:53;3.22;;;1.00;;
46613;SDS011;32338;50.430;6.806;2023-03-23T05:40:20;1.20;;;1.08;;
46613;SDS011;32338;50.430;6.806;2023-03-23T05:42:48;1.67;;;1.30;;
46613;SDS011;32338;50.430;6.806;2023-03-23T05:45:15;2.05;;;1.30;;
46613;SDS011;32338;50.430;6.806;2023-03-23T05:47:42;5.95;;;1.30;;
46613;SDS011;32338;50.430;6.806;2023-03-23T05:50:09;2.28;;;1.30;;
46613;SDS011;32338;50.430;6.806;2023-03-23T05:52:38;3.85;;;1.45;;
46613;SDS011;32338;50.430;6.806;2023-03-23T05:55:06;1.38;;;1.25;;
46613;SDS011;32338;50.430;6.806;2023-03-23T05:57:34;2.85;;;1.25;;
46613;SDS011;32338;50.430;6.806;2023-03-23T06:00:00;2.70;;;1.40;;
46613;SDS011;32338;50.430;6.806;2023-03-23T06:02:38;3.50;;;1.42;;
46613;SDS011;32338;50.430;6.806;2023-03-23T06:05:08;2.40;;;1.50;;
46613;SDS011;32338;50.430;6.806;2023-03-23T06:07:35;3.58;;;1.27;;
46613;SDS011;32338;50.430;6.806;2023-03-23T06:10:04;5.60;;;1.52;;
46613;SDS011;32338;50.430;6.806;2023-03-23T06:12:31;2.70;;;1.02;;
46613;SDS011;32338;50.430;6.806;2023-03-23T06:14:59;1.98;;;1.40;;
46613;SDS011;32338;50.430;6.806;2023-03-23T06:17:25;2.67;;;1.20;;
46613;SDS011;32338;50.430;6.806;2023-03-23T06:19:52;1.88;;;1.30;;
46613;SDS011;32338;50.430;6.806;2023-03-23T06:22:19;3.35;;;1.70;;
46613;SDS011;32338;50.430;6.806;2023-03-23T06:24:46;3.22;;;1.40;;
46613;SDS011;32338;50.430;6.806;2023-03-23T06:27:15;2.38;;;1.63;;
46613;SDS011;32338;50.430;6.806;2023-03-23T06:29:42;3.20;;;1.20;;
46613;SDS011;32338;50.430;6.806;2023-03-23T06:32:09;3.15;;;1.15;;
46613;SDS011;32338;50.430;6.806;2023-03-23T06:34:38;2.80;;;1.20;;
46613;SDS011;32338;50.430;6.806;2023-03-23T06:37:05;4.97;;;1.58;;
46613;SDS011;32338;50.430;6.806;2023-03-23T06:39:32;2.40;;;1.10;;
46613;SDS011;32338;50.430;6.806;2023-03-23T06:41:59;2.92;;;1.05;;
46613;SDS011;32338;50.430;6.806;2023-03-23T06:44:27;2.50;;;1.20;;
46613;SDS011;32338;50.430;6.806;2023-03-23T06:46:54;1.88;;;1.27;;
46613;SDS011;32338;50.430;6.806;2023-03-23T06:49:21;4.50;;;1.48;;
46613;SDS011;32338;50.430;6.806;2023-03-23T06:51:48;1.73;;;1.05;;
46613;SDS011;32338;50.430;6.806;2023-03-23T06:54:15;3.30;;;1.30;;
46613;SDS011;32338;50.430;6.806;2023-03-23T06:56:41;4.43;;;1.40;;
46613;SDS011;32338;50.430;6.806;2023-03-23T06:59:08;3.03;;;1.25;;
46613;SDS011;32338;50.430;6.806;2023-03-23T07:01:36;2.22;;;1.20;;
46613;SDS011;32338;50.430;6.806;2023-03-23T07:04:03;3.28;;;1.10;;
46613;SDS011;32338;50.430;6.806;2023-03-23T07:06:30;2.80;;;1.00;;
46613;SDS011;32338;50.430;6.806;2023-03-23T07:08:57;3.67;;;1.10;;
46613;SDS011;32338;50.430;6.806;2023-03-23T07:11:23;3.47;;;1.08;;
46613;SDS011;32338;50.430;6.806;2023-03-23T07:13:50;2.20;;;1.10;;
46613;SDS011;32338;50.430;6.806;2023-03-23T07:16:17;4.50;;;1.02;;
46613;SDS011;32338;50.430;6.806;2023-03-23T07:18:45;2.78;;;0.80;;
46613;SDS011;32338;50.430;6.806;2023-03-23T07:21:12;2.08;;;0.90;;
46613;SDS011;32338;50.430;6.806;2023-03-23T07:23:38;1.95;;;0.80;;
46613;SDS011;32338;50.430;6.806;2023-03-23T07:26:05;3.33;;;1.00;;
46613;SDS011;32338;50.430;6.806;2023-03-23T07:28:32;2.95;;;2.00;;
46613;SDS011;32338;50.430;6.806;2023-03-23T07:31:01;5.35;;;0.80;;
46613;SDS011;32338;50.430;6.806;2023-03-23T07:33:28;3.60;;;0.90;;
46613;SDS011;32338;50.430;6.806;2023-03-23T07:35:57;2.97;;;0.90;;
46613;SDS011;32338;50.430;6.806;2023-03-23T07:38:25;2.97;;;0.90;;
46613;SDS011;32338;50.430;6.806;2023-03-23T07:40:52;3.08;;;0.80;;
46613;SDS011;32338;50.430;6.806;2023-03-23T07:43:19;2.30;;;1.02;;
46613;SDS011;32338;50.430;6.806;2023-03-23T07:45:46;1.23;;;0.80;;
46613;SDS011;32338;50.430;6.806;2023-03-23T07:48:13;4.57;;;0.80;;
46613;SDS011;32338;50.430;6.806;2023-03-23T07:50:40;2.50;;;0.88;;
46613;SDS011;32338;50.430;6.806;2023-03-23T07:53:11;3.35;;;1.00;;
46613;SDS011;32338;50.430;6.806;2023-03-23T07:55:38;2.28;;;1.00;;
46613;SDS011;32338;50.430;6.806;2023-03-23T07:58:07;1.67;;;0.90;;
46613;SDS011;32338;50.430;6.806;2023-03-23T08:00:34;1.92;;;0.70;;
46613;SDS011;32338;50.430;6.806;2023-03-23T08:03:01;2.15;;;0.88;;
46613;SDS011;32338;50.430;6.806;2023-03-23T08:05:31;1.25;;;0.80;;
46613;SDS011;32338;50.430;6.806;2023-03-23T08:07:59;3.42;;;1.00;;
46613;SDS011;32338;50.430;6.806;2023-03-23T08:10:27;1.85;;;0.85;;
46613;SDS011;32338;50.430;6.806;2023-03-23T08:12:55;1.77;;;0.80;;
46613;SDS011;32338;50.430;6.806;2023-03-23T08:15:24;3.25;;;0.82;;
46613;SDS011;32338;50.430;6.806;2023-03-23T08:17:51;1.73;;;1.00;;
46613;SDS011;32338;50.430;6.806;2023-03-23T08:20:18;1.70;;;0.80;;
46613;SDS011;32338;50.430;6.806;2023-03-23T08:22:48;2.38;;;0.98;;
46613;SDS011;32338;50.430;6.806;2023-03-23T08:25:18;4.85;;;0.90;;
46613;SDS011;32338;50.430;6.806;2023-03-23T08:27:48;2.13;;;0.95;;
46613;SDS011;32338;50.430;6.806;2023-03-23T08:30:16;2.67;;;0.93;;
46613;SDS011;32338;50.430;6.806;2023-03-23T08:32:46;3.28;;;0.90;;
46613;SDS011;32338;50.430;6.806;2023-03-23T08:35:13;3.08;;;0.70;;
46613;SDS011;32338;50.430;6.806;2023-03-23T08:37:41;2.72;;;0.80;;
46613;SDS011;32338;50.430;6.806;2023-03-23T08:40:09;1.42;;;0.70;;
46613;SDS011;32338;50.430;6.806;2023-03-23T08:42:39;3.38;;;1.00;;
46613;SDS011;32338;50.430;6.806;2023-03-23T08:45:10;2.80;;;0.82;;
46613;SDS011;32338;50.430;6.806;2023-03-23T08:47:38;2.53;;;0.88;;
46613;SDS011;32338;50.430;6.806;2023-03-23T08:50:05;2.13;;;0.80;;
46613;SDS011;32338;50.430;6.806;2023-03-23T08:52:35;1.00;;;0.88;;
46613;SDS011;32338;50.430;6.806;2023-03-23T08:55:03;2.88;;;0.80;;
46613;SDS011;32338;50.430;6.806;2023-03-23T08:57:30;2.47;;;0.80;;
46613;SDS011;32338;50.430;6.806;2023-03-23T08:59:57;1.45;;;0.77;;
46613;SDS011;32338;50.430;6.806;2023-03-23T09:02:28;1.20;;;0.70;;
46613;SDS011;32338;50.430;6.806;2023-03-23T09:04:59;1.40;;;0.85;;
46613;SDS011;32338;50.430;6.806;2023-03-23T09:07:26;1.17;;;0.77;;
46613;SDS011;32338;50.430;6.806;2023-03-23T09:09:53;1.02;;;0.70;;
46613;SDS011;32338;50.430;6.806;2023-03-23T09:12:19;1.30;;;0.95;;
46613;SDS011;32338;50.430;6.806;2023-03-23T09:14:46;2.22;;;0.63;;
46613;SDS011;32338;50.430;6.806;2023-03-23T09:17:13;1.13;;;0.60;;
46613;SDS011;32338;50.430;6.806;2023-03-23T09:19:41;1.20;;;0.90;;
46613;SDS011;32338;50.430;6.806;2023-03-23T09:22:08;1.55;;;0.80;;
46613;SDS011;32338;50.430;6.806;2023-03-23T09:24:35;0.95;;;0.60;;
46613;SDS011;32338;50.430;6.806;2023-03-23T09:27:02;1.27;;;0.88;;
46613;SDS011;32338;50.430;6.806;2023-03-23T09:29:29;1.20;;;0.77;;
46613;SDS011;32338;50.430;6.806;2023-03-23T09:31:56;1.23;;;0.68;;
46613;SDS011;32338;50.430;6.806;2023-03-23T09:34:23;5.05;;;0.75;;
46613;SDS011;32338;50.430;6.806;2023-03-23T09:36:51;1.35;;;0.80;;
46613;SDS011;32338;50.430;6.806;2023-03-23T09:39:18;1.38;;;1.00;;
46613;SDS011;32338;50.430;6.806;2023-03-23T09:41:50;2.50;;;0.90;;
46613;SDS011;32338;50.430;6.806;2023-03-23T09:44:36;1.42;;;0.60;;
46613;SDS011;32338;50.430;6.806;2023-03-23T09:47:16;1.05;;;0.95;;
46613;SDS011;32338;50.430;6.806;2023-03-23T09:49:48;1.33;;;0.45;;
46613;SDS011;32338;50.430;6.806;2023-03-23T09:52:21;1.00;;;0.57;;
46613;SDS011;32338;50.430;6.806;2023-03-23T09:54:49;1.15;;;0.50;;
46613;SDS011;32338;50.430;6.806;2023-03-23T09:57:20;1.38;;;0.60;;
46613;SDS011;32338;50.430;6.806;2023-03-23T09:59:54;1.60;;;0.68;;
46613;SDS011;32338;50.430;6.806;2023-03-23T10:02:27;1.08;;;0.40;;
46613;SDS011;32338;50.430;6.806;2023-03-23T10:05:02;4.30;;;1.05;;
46613;SDS011;32338;50.430;6.806;2023-03-23T10:07:43;2.65;;;1.10;;
46613;SDS011;32338;50.430;6.806;2023-03-23T10:10:12;0.45;;;0.43;;
46613;SDS011;32338;50.430;6.806;2023-03-23T10:12:41;1.38;;;0.70;;
46613;SDS011;32338;50.430;6.806;2023-03-23T10:15:19;3.85;;;1.98;;
46613;SDS011;32338;50.430;6.806;2023-03-23T10:17:51;0.77;;;0.47;;
46613;SDS011;32338;50.430;6.806;2023-03-23T10:20:35;0.80;;;0.43;;
46613;SDS011;32338;50.430;6.806;2023-03-23T10:26:18;1.48;;;0.40;;
46613;SDS011;32338;50.430;6.806;2023-03-23T10:29:08;1.20;;;0.50;;
46613;SDS011;32338;50.430;6.806;2023-03-23T10:31:42;1.27;;;0.60;;
46613;SDS011;32338;50.430;6.806;2023-03-23T10:34:15;1.48;;;0.50;;
46613;SDS011;32338;50.430;6.806;2023-03-23T10:36:55;1.27;;;0.63;;
46613;SDS011;32338;50.430;6.806;2023-03-23T10:39:30;1.33;;;0.60;;
46613;SDS011;32338;50.430;6.806;2023-03-23T10:42:05;1.52;;;0.70;;
46613;SDS011;32338;50.430;6.806;2023-03-23T10:44:33;1.38;;;0.47;;
46613;SDS011;32338;50.430;6.806;2023-03-23T10:47:00;1.13;;;0.60;;
46613;SDS011;32338;50.430;6.806;2023-03-23T10:49:30;2.35;;;0.90;;
46613;SDS011;32338;50.430;6.806;2023-03-23T10:52:02;1.90;;;0.60;;
46613;SDS011;32338;50.430;6.806;2023-03-23T10:54:35;1.67;;;0.60;;
46613;SDS011;32338;50.430;6.806;2023-03-23T10:57:12;1.48;;;0.60;;
46613;SDS011;32338;50.430;6.806;2023-03-23T10:59:46;3.03;;;0.75;;
46613;SDS011;32338;50.430;6.806;2023-03-23T11:02:14;3.70;;;0.70;;
46613;SDS011;32338;50.430;6.806;2023-03-23T11:04:45;1.15;;;0.70;;
46613;SDS011;32338;50.430;6.806;2023-03-23T11:07:20;1.17;;;0.47;;
46613;SDS011;32338;50.430;6.806;2023-03-23T11:09:55;1.35;;;0.47;;
46613;SDS011;32338;50.430;6.806;2023-03-23T11:12:23;1.95;;;0.75;;
46613;SDS011;32338;50.430;6.806;2023-03-23T11:14:51;2.08;;;0.70;;
46613;SDS011;32338;50.430;6.806;2023-03-23T11:17:21;1.80;;;0.70;;
46613;SDS011;32338;50.430;6.806;2023-03-23T11:19:50;3.05;;;0.82;;
46613;SDS011;32338;50.430;6.806;2023-03-23T11:22:20;1.63;;;0.47;;
46613;SDS011;32338;50.430;6.806;2023-03-23T11:24:52;2.10;;;0.73;;
46613;SDS011;32338;50.430;6.806;2023-03-23T11:27:21;2.90;;;0.63;;
46613;SDS011;32338;50.430;6.806;2023-03-23T11:29:53;1.55;;;0.50;;
46613;SDS011;32338;50.430;6.806;2023-03-23T11:32:22;1.38;;;0.50;;
46613;SDS011;32338;50.430;6.806;2023-03-23T11:34:54;1.00;;;0.57;;
46613;SDS011;32338;50.430;6.806;2023-03-23T11:37:27;0.77;;;0.52;;
46613;SDS011;32338;50.430;6.806;2023-03-23T11:39:57;1.95;;;0.60;;
46613;SDS011;32338;50.430;6.806;2023-03-23T11:42:34;1.80;;;1.02;;
46613;SDS011;32338;50.430;6.806;2023-03-23T11:45:12;1.25;;;0.60;;
46613;SDS011;32338;50.430;6.806;2023-03-23T11:47:43;1.30;;;0.60;;
46613;SDS011;32338;50.430;6.806;2023-03-23T11:50:25;2.92;;;0.60;;
46613;SDS011;32338;50.430;6.806;2023-03-23T11:52:57;4.38;;;0.80;;
46613;SDS011;32338;50.430;6.806;2023-03-23T11:55:31;4.65;;;1.13;;
46613;SDS011;32338;50.430;6.806;2023-03-23T11:58:05;3.15;;;0.80;;
46613;SDS011;32338;50.430;6.806;2023-03-23T12:00:36;3.30;;;0.70;;
46613;SDS011;32338;50.430;6.806;2023-03-23T12:03:17;1.20;;;0.50;;
46613;SDS011;32338;50.430;6.806;2023-03-23T12:05:45;0.93;;;0.68;;
46613;SDS011;32338;50.430;6.806;2023-03-23T12:08:23;3.22;;;0.90;;
46613;SDS011;32338;50.430;6.806;2023-03-23T12:10:59;1.58;;;0.80;;
46613;SDS011;32338;50.430;6.806;2023-03-23T12:13:45;2.88;;;1.00;;
46613;SDS011;32338;50.430;6.806;2023-03-23T12:16:23;3.35;;;0.77;;
46613;SDS011;32338;50.430;6.806;2023-03-23T12:19:01;3.70;;;0.98;;
46613;SDS011;32338;50.430;6.806;2023-03-23T12:21:42;3.72;;;0.88;;
46613;SDS011;32338;50.430;6.806;2023-03-23T12:24:29;2.80;;;0.90;;
46613;SDS011;32338;50.430;6.806;2023-03-23T12:27:08;4.30;;;0.85;;
46613;SDS011;32338;50.430;6.806;2023-03-23T12:29:48;2.58;;;1.00;;
46613;SDS011;32338;50.430;6.806;2023-03-23T12:32:43;3.90;;;0.77;;
46613;SDS011;32338;50.430;6.806;2023-03-23T12:35:23;3.35;;;0.90;;
46613;SDS011;32338;50.430;6.806;2023-03-23T12:38:02;2.90;;;0.60;;
46613;SDS011;32338;50.430;6.806;2023-03-23T12:40:41;3.55;;;0.80;;
46613;SDS011;32338;50.430;6.806;2023-03-23T12:43:19;0.85;;;0.70;;
46613;SDS011;32338;50.430;6.806;2023-03-23T12:46:09;2.50;;;0.90;;
46613;SDS011;32338;50.430;6.806;2023-03-23T12:48:48;2.53;;;0.82;;
46613;SDS011;32338;50.430;6.806;2023-03-23T12:51:20;2.72;;;0.98;;
46613;SDS011;32338;50.430;6.806;2023-03-23T12:53:53;2.88;;;1.00;;
46613;SDS011;32338;50.430;6.806;2023-03-23T12:56:27;4.97;;;1.00;;
46613;SDS011;32338;50.430;6.806;2023-03-23T12:59:00;1.08;;;0.52;;
46613;SDS011;32338;50.430;6.806;2023-03-23T13:01:36;3.55;;;0.80;;
46613;SDS011;32338;50.430;6.806;2023-03-23T13:04:07;3.25;;;0.95;;
46613;SDS011;32338;50.430;6.806;2023-03-23T13:06:37;4.53;;;0.98;;
46613;SDS011;32338;50.430;6.806;2023-03-23T13:09:07;3.08;;;1.00;;
46613;SDS011;32338;50.430;6.806;2023-03-23T13:11:41;4.18;;;0.85;;
46613;SDS011;32338;50.430;6.806;2023-03-23T13:14:26;3.80;;;0.80;;
46613;SDS011;32338;50.430;6.806;2023-03-23T13:17:04;3.20;;;1.00;;
46613;SDS011;32338;50.430;6.806;2023-03-23T13:19:41;4.78;;;1.00;;
46613;SDS011;32338;50.430;6.806;2023-03-23T13:22:24;2.30;;;0.73;;
46613;SDS011;32338;50.430;6.806;2023-03-23T13:24:57;6.78;;;1.17;;
46613;SDS011;32338;50.430;6.806;2023-03-23T13:27:29;2.58;;;0.70;;
46613;SDS011;32338;50.430;6.806;2023-03-23T13:29:56;1.95;;;0.75;;
46613;SDS011;32338;50.430;6.806;2023-03-23T13:32:32;5.55;;;0.85;;
46613;SDS011;32338;50.430;6.806;2023-03-23T13:35:01;3.55;;;0.90;;
46613;SDS011;32338;50.430;6.806;2023-03-23T13:37:30;2.53;;;0.90;;
46613;SDS011;32338;50.430;6.806;2023-03-23T13:39:58;2.20;;;0.85;;
46613;SDS011;32338;50.430;6.806;2023-03-23T13:42:32;4.57;;;1.10;;
46613;SDS011;32338;50.430;6.806;2023-03-23T13:45:17;4.72;;;0.85;;
46613;SDS011;32338;50.430;6.806;2023-03-23T13:48:01;3.17;;;0.90;;
46613;SDS011;32338;50.430;6.806;2023-03-23T13:50:43;2.30;;;1.15;;
46613;SDS011;32338;50.430;6.806;2023-03-23T13:53:14;4.68;;;1.05;;
46613;SDS011;32338;50.430;6.806;2023-03-23T13:55:51;4.07;;;1.00;;
46613;SDS011;32338;50.430;6.806;2023-03-23T13:58:43;4.05;;;1.15;;
46613;SDS011;32338;50.430;6.806;2023-03-23T14:01:14;5.03;;;1.30;;
46613;SDS011;32338;50.430;6.806;2023-03-23T14:03:45;2.15;;;1.08;;
46613;SDS011;32338;50.430;6.806;2023-03-23T14:06:16;4.18;;;1.30;;
46613;SDS011;32338;50.430;6.806;2023-03-23T14:08:47;4.80;;;1.08;;
46613;SDS011;32338;50.430;6.806;2023-03-23T14:11:20;5.07;;;0.90;;
46613;SDS011;32338;50.430;6.806;2023-03-23T14:13:51;3.88;;;0.88;;
46613;SDS011;32338;50.430;6.806;2023-03-23T14:16:31;3.42;;;0.95;;
46613;SDS011;32338;50.430;6.806;2023-03-23T14:19:04;6.40;;;1.20;;
46613;SDS011;32338;50.430;6.806;2023-03-23T14:21:48;5.93;;;1.20;;
46613;SDS011;32338;50.430;6.806;2023-03-23T14:24:19;4.18;;;1.10;;
46613;SDS011;32338;50.430;6.806;2023-03-23T14:26:52;2.75;;;0.90;;
46613;SDS011;32338;50.430;6.806;2023-03-23T14:29:32;2.08;;;0.90;;
46613;SDS011;32338;50.430;6.806;2023-03-23T14:31:58;7.60;;;1.00;;
46613;SDS011;32338;50.430;6.806;2023-03-23T14:34:29;5.53;;;1.20;;
46613;SDS011;32338;50.430;6.806;2023-03-23T14:36:57;3.40;;;1.08;;
46613;SDS011;32338;50.430;6.806;2023-03-23T14:39:25;5.78;;;1.10;;
46613;SDS011;32338;50.430;6.806;2023-03-23T14:41:55;4.35;;;1.20;;
46613;SDS011;32338;50.430;6.806;2023-03-23T14:44:29;3.92;;;1.45;;
46613;SDS011;32338;50.430;6.806;2023-03-23T14:46:57;2.20;;;0.90;;
46613;SDS011;32338;50.430;6.806;2023-03-23T14:49:30;5.97;;;1.02;;
46613;SDS011;32338;50.430;6.806;2023-03-23T14:52:02;5.05;;;1.17;;
46613;SDS011;32338;50.430;6.806;2023-03-23T14:54:34;4.82;;;1.10;;
46613;SDS011;32338;50.430;6.806;2023-03-23T14:57:15;2.90;;;0.90;;
46613;SDS011;32338;50.430;6.806;2023-03-23T14:59:44;4.25;;;0.95;;
46613;SDS011;32338;50.430;6.806;2023-03-23T15:02:13;4.70;;;1.20;;
46613;SDS011;32338;50.430;6.806;2023-03-23T15:04:45;3.80;;;1.00;;
46613;SDS011;32338;50.430;6.806;2023-03-23T15:07:17;3.33;;;1.00;;
46613;SDS011;32338;50.430;6.806;2023-03-23T15:09:45;3.97;;;1.20;;
46613;SDS011;32338;50.430;6.806;2023-03-23T15:12:18;2.38;;;1.00;;
46613;SDS011;32338;50.430;6.806;2023-03-23T15:14:49;5.07;;;1.33;;
46613;SDS011;32338;50.430;6.806;2023-03-23T15:17:18;4.45;;;1.02;;